logo
App data

Perraw - FPS Clone War Alpha

Perraw is a FPS multiplayer/Tower Defense placed in an futuristic environment Developed in free time as a hobby. WARNING: THIS GAME IS EARLY ACCESS ALPHA.
Store | Hub | SteamDB
Developer: Christian Piano Publisher: Oblion Studio
Genre: Action, Indie, Early Access
Languages: English
Tags: Early Access (47), Action (43), FPS (25), Indie (24), Arena Shooter (24), Tower Defense (12)
Category: Single-player, Multi-player, Co-op, Steam Achievements, Steam Trading Cards
Release date: Jan 29, 2016
Price: $0.99
Old userscore: 67% Owners: 0 .. 20,000
Followers: 238
Peak concurrent players yesterday: 2

Steam Spy is still in beta, so expect major bugs.

Owners data:

Access restricted.

This feature is only available to users with special access rights. Sorry.

If you want to proceed, you need to register or log in first and then back Steam Spy on Patreon. Look for Indie or Pro pledge.

Don't forget to use the same email as on Steam Spy!

If you've recently backed Steam Spy on Patreon, please note, that it might take around 15 minutes for your access rights to sync. In most cases you'll need to re-login on Steam Spy too.

Audience in 2 weeks:

Access restricted.

This feature is only available to users with special access rights. Sorry.

If you want to proceed, you need to register or log in first and then back Steam Spy on Patreon. Look for Indie or Pro pledge.

Don't forget to use the same email as on Steam Spy!

If you've recently backed Steam Spy on Patreon, please note, that it might take around 15 minutes for your access rights to sync. In most cases you'll need to re-login on Steam Spy too.

Peak daily concurrent players:

CCU data courtesy of SteamDB. Used with permission.

Hourly concurrent players:

Followers over time

Access restricted.

This feature is only available to users with special access rights. Sorry.

If you want to proceed, you need to register or log in first and then back Steam Spy on Patreon. Look for Indie or Pro pledge.

Don't forget to use the same email as on Steam Spy!

If you've recently backed Steam Spy on Patreon, please note, that it might take around 15 minutes for your access rights to sync. In most cases you'll need to re-login on Steam Spy too.

Views for top 50 videos on YouTube for this game:

Games similar to this one:

# Game Release date
Price
Score rank
(Userscore / Metascore)
Owners
Players
Playtime (Median)
1 Element4l May 24, 2013 $8.99N/A (N/A/77%)50,000 .. 100,0000%00:00 (00:00)
2 Mindless Running Feb 22, 2016 $0.99N/A (N/A)20,000 .. 50,0000%00:00 (00:00)
3 Ms. Splosion Man Apr 3, 2013 $9.99N/A (N/A)20,000 .. 50,0000%00:00 (00:00)
4 ChargeShot Sep 18, 2015 $9.99N/A (N/A)20,000 .. 50,0000%00:00 (00:00)
5 Western Press Apr 21, 2016 $4.99N/A (N/A)0 .. 20,0000%00:00 (00:00)
6 Beyond Eyes Aug 11, 2015 $14.99N/A (N/A/60%)100,000 .. 200,0000%00:00 (00:00)
7 Bloody Streets Mar 12, 2015 $4.99N/A (N/A)20,000 .. 50,0000%00:00 (00:00)
8 Fancy Skulls Jun 16, 2014 $8.99N/A (N/A)20,000 .. 50,0000%00:00 (00:00)
9 GORN Jul 18, 2019 $19.99N/A (N/A/85%)200,000 .. 500,0004.55%00:10 (00:03)
10 Volt Apr 14, 2014 $0.99N/A (N/A)100,000 .. 200,0000%00:00 (00:00)
11 It Comes Around - A Kinetic Novel Sep 29, 2016 $2.99N/A (N/A)20,000 .. 50,0000%00:00 (00:00)
12 Survivor Squad Jan 21, 2015 $2.99N/A (N/A)100,000 .. 200,0000%00:00 (00:00)
13 Blade Ballet Aug 9, 2016 $14.99N/A (N/A)0 .. 20,0000%00:00 (00:00)
14 Cargo Commander Nov 1, 2012 $2.99N/A (N/A)100,000 .. 200,0000%00:00 (00:00)
15 Bell Ringer Mar 6, 2016 $6.99N/A (N/A)200,000 .. 500,0000%00:00 (00:00)
16 A.I. Invasion Sep 30, 2015 $9.99N/A (N/A)0 .. 20,0000%00:00 (00:00)
17 Dustbowl May 18, 2015 $8.99N/A (N/A)0 .. 20,0000%00:00 (00:00)
18 Disillusions Manga Horror Jan 16, 2015 $0.99N/A (N/A)20,000 .. 50,0000%00:00 (00:00)
19 Disorder Jan 12, 2015 $3.99N/A (N/A/61%)20,000 .. 50,0000%00:00 (00:00)
20 Dreaming Sarah Mar 12, 2015 $1.19N/A (N/A)200,000 .. 500,0000%00:00 (00:00)
21 Snake Pass Mar 28, 2017 $19.99N/A (N/A/71%)200,000 .. 500,0000%00:00 (00:00)
22 T.E.C. 3001 Apr 11, 2014 N/AN/A (N/A)20,000 .. 50,0000%00:00 (00:00)
23 Super Duper Party Pooper Jun 6, 2016 $0.99N/A (N/A/40%)100,000 .. 200,0000%00:00 (00:00)
24 Intake Nov 6, 2013 $9.99N/A (N/A)20,000 .. 50,0000%00:00 (00:00)
25 Mimpi Dreams Mar 22, 2016 FreeN/A (N/A)50,000 .. 100,0000%00:00 (00:00)
26 Titan Attacks! Feb 3, 2012 $9.99N/A (N/A)0 .. 20,0000%00:00 (00:00)
27 Club Life Apr 13, 2016 $12.99N/A (N/A)0 .. 20,0000%00:00 (00:00)
28 Sky Rogue Aug 24, 2017 $19.99N/A (N/A)50,000 .. 100,0000%00:00 (00:00)
29 Orbit HD Mar 18, 2015 $1.99N/A (N/A)20,000 .. 50,0000%00:00 (00:00)
30 Chronicles of a Dark Lord: Episode 1 Tides of Fate Complete Dec 19, 2014 N/AN/A (N/A)50,000 .. 100,0000%00:00 (00:00)
31 Curses 'N Chaos Aug 18, 2015 $9.99N/A (N/A)20,000 .. 50,0000%00:00 (00:00)
32 Guns of Icarus Alliance Mar 31, 2017 $4.99N/A (N/A)100,000 .. 200,0000%00:00 (00:00)
33 Vitrum Apr 22, 2014 $1.99N/A (N/A)0 .. 20,0000%00:00 (00:00)
34 Starship Annihilator Sep 2, 2016 $0.99N/A (N/A)20,000 .. 50,0000%00:00 (00:00)
35 Montague's Mount Nov 19, 2013 $4.99N/A (N/A/39%)20,000 .. 50,0000%00:00 (00:00)
36 Dashy Square Apr 26, 2016 $2.99N/A (N/A)0 .. 20,0000%00:00 (00:00)
37 Puddle Nov 9, 2012 $7.99N/A (N/A)50,000 .. 100,0000%00:00 (00:00)
38 Space Moth DX Jan 22, 2016 $4.99N/A (N/A)20,000 .. 50,0000%00:00 (00:00)
39 Earth Overclocked Dec 4, 2015 $4.99N/A (N/A)20,000 .. 50,0000%00:00 (00:00)
40 Pixel Star May 22, 2015 $2.99N/A (N/A)20,000 .. 50,0000%00:00 (00:00)
41 The Cursed Forest Feb 26, 2019 $13.99N/A (N/A)0 .. 20,0000%00:00 (00:00)
42 iO Dec 5, 2014 $4.99N/A (N/A)20,000 .. 50,00012.5%00:08 (00:02)
43 Frederic: Resurrection of Music May 16, 2014 $2.99N/A (N/A)100,000 .. 200,0000%00:00 (00:00)
44 Wayout Nov 4, 2016 $0.99N/A (N/A)50,000 .. 100,0000%00:00 (00:00)
45 Munin Jun 10, 2014 $4.99N/A (N/A/68%)200,000 .. 500,0000%00:00 (00:00)
46 DashBored Jun 13, 2016 $4.99N/A (N/A)20,000 .. 50,0000%00:00 (00:00)
47 Super Puzzle Platformer Deluxe May 24, 2013 $7.99N/A (N/A)20,000 .. 50,0000%00:00 (00:00)
48 Cube Land Arena Mar 29, 2016 $0.99N/A (N/A)50,000 .. 100,0000%00:00 (00:00)
49 BIT.TRIP CORE Oct 2, 2012 $9.99N/A (N/A)20,000 .. 50,0000%00:00 (00:00)
50 Jet Set Knights Jan 1, 2016 $9.99N/A (N/A)0 .. 20,0000%00:00 (00:00)
51 Action Alien Jun 26, 2015 $4.99N/A (N/A)50,000 .. 100,0000%00:00 (00:00)
52 Big Action Mega Fight! Jan 12, 2016 $1.99N/A (N/A)20,000 .. 50,0000%00:00 (00:00)
53 Bermuda Mar 17, 2015 $2.99N/A (N/A)50,000 .. 100,0000%00:00 (00:00)
54 Back to Bed Aug 6, 2014 $5.99N/A (N/A)1,000,000 .. 2,000,0000%00:00 (00:00)
55 The Archotek Project Apr 28, 2017 $0.99N/A (N/A)200,000 .. 500,0000%00:00 (00:00)
56 Three Dead Zed Jul 7, 2014 $5.99N/A (N/A)50,000 .. 100,0000%00:00 (00:00)
57 Please, Don't Touch Anything 3D Dec 7, 2016 $9.99N/A (N/A)20,000 .. 50,00014.29%00:36 (00:12)
58 Ballpoint Universe - Infinite Dec 17, 2013 $3.99N/A (N/A)50,000 .. 100,0000%00:00 (00:00)
59 NORTH Apr 27, 2016 $1.99N/A (N/A)200,000 .. 500,0000%00:00 (00:00)
60 Retro/Grade Mar 20, 2013 $9.99N/A (N/A)20,000 .. 50,0000%00:00 (00:00)
61 PERFECT ANGLE: The puzzle game based on optical illusions Dec 22, 2015 $9.99N/A (N/A)50,000 .. 100,0000%00:00 (00:00)
62 Stardust Galaxy Warriors: Stellar Climax Nov 10, 2015 $9.99N/A (N/A)0 .. 20,0000%00:00 (00:00)
63 Polyball Dec 1, 2017 $14.99N/A (N/A)100,000 .. 200,0000%00:00 (00:00)
64 Rats - Time is running out! Aug 19, 2015 $4.99N/A (N/A)50,000 .. 100,0000%00:00 (00:00)
65 Horizon Shift May 29, 2015 $4.99N/A (N/A)100,000 .. 200,0000%00:00 (00:00)
66 Frederic: Evil Strikes Back May 23, 2014 $7.99N/A (N/A)50,000 .. 100,0000%00:00 (00:00)
67 Witch It Oct 22, 2020 $19.99N/A (N/A)200,000 .. 500,0003.77%00:27 (00:15)
68 4PM Jul 9, 2014 $2.99N/A (N/A/41%)0 .. 20,0000%00:00 (00:00)
69 Bohemian Killing Jul 21, 2016 $12.99N/A (N/A/55%)0 .. 20,0000%00:00 (00:00)
70 Poöf Nov 8, 2013 $6.99N/A (N/A)20,000 .. 50,0000%00:00 (00:00)
71 Hero Quest: Tower Conflict Apr 13, 2016 $0.99N/A (N/A)100,000 .. 200,0000%00:00 (00:00)
72 BIT.TRIP VOID Dec 19, 2012 $9.99N/A (N/A)20,000 .. 50,0000%00:00 (00:00)
73 1,000 Heads Among the Trees Dec 11, 2015 $4.99N/A (N/A)100,000 .. 200,0000%00:00 (00:00)
74 8Bit Fiesta - Party Game Sep 30, 2016 FreeN/A (N/A)20,000 .. 50,0000%00:00 (00:00)
75 Luckslinger Jul 16, 2015 $9.99N/A (N/A/76%)20,000 .. 50,0000%00:00 (00:00)
76 Ukrainian Ninja Dec 23, 2014 FreeN/A (N/A)0 .. 20,0000%00:00 (00:00)
77 NEON STRUCT May 20, 2015 $17.99N/A (N/A/62%)50,000 .. 100,0000%00:00 (00:00)
78 Uriel's Chasm Sep 12, 2014 $4.99N/A (N/A)200,000 .. 500,0000%00:00 (00:00)
79 mr.President Prologue Episode Sep 20, 2016 $0.99N/A (N/A)50,000 .. 100,0000%00:00 (00:00)
80 STARWHAL Sep 29, 2014 $11.99N/A (N/A)50,000 .. 100,0000%00:00 (00:00)
81 上帝之城 I:监狱帝国 [City of God I - Prison Empire] Jul 9, 2018 $18.99N/A (N/A)100,000 .. 200,0000%00:00 (00:00)
82 Papo & Yo Apr 18, 2013 $14.99N/A (N/A/70%)200,000 .. 500,0000%00:00 (00:00)
83 IMSCARED Jan 31, 2016 $3.99N/A (N/A)20,000 .. 50,0000%00:00 (00:00)
84 Redemption: Eternal Quest Aug 28, 2015 $0.99N/A (N/A)0 .. 20,0000%00:00 (00:00)
85 Treeker: The Lost Glasses Remake May 13, 2015 $2.99N/A (N/A)20,000 .. 50,0000%00:00 (00:00)
86 BlastZone 2 Feb 19, 2015 $9.99N/A (N/A)0 .. 20,0000%00:00 (00:00)
87 Instant Dungeon! Nov 25, 2014 $1.99N/A (N/A)0 .. 20,0000%00:00 (00:00)
88 Rhythm Destruction Jun 16, 2014 $4.99N/A (N/A)50,000 .. 100,0000%00:00 (00:00)
89 Introvert Quest Mar 15, 2017 $2.99N/A (N/A)100,000 .. 200,0000%00:00 (00:00)
90 Rabbit Hole 3D: Steam Edition Apr 25, 2014 $2.99N/A (N/A)50,000 .. 100,0000%00:00 (00:00)
91 Alteric Jul 13, 2016 $3.99N/A (N/A)20,000 .. 50,0000%00:00 (00:00)
92 The Novelist Dec 10, 2013 $4.99N/A (N/A/66%)100,000 .. 200,0000%00:00 (00:00)
93 CrazyCars3D Jun 14, 2016 $2.99N/A (N/A)50,000 .. 100,0000%00:00 (00:00)
94 Tales From Space: Mutant Blobs Attack Aug 15, 2012 $9.99N/A (N/A/83%)50,000 .. 100,0000%00:00 (00:00)
95 Fist Slash: Of Ultimate Fury Dec 10, 2015 $3.99N/A (N/A)0 .. 20,0000%00:00 (00:00)
96 Dead In Bermuda Aug 27, 2015 $14.99N/A (N/A)20,000 .. 50,0000%00:00 (00:00)
97 Canabalt Apr 30, 2015 $2.99N/A (N/A)20,000 .. 50,0000%00:00 (00:00)
98 TIMEframe Jul 7, 2015 $5.99N/A (N/A)50,000 .. 100,0000%00:00 (00:00)
99 The Masterplan Jun 4, 2015 $19.99N/A (N/A/68%)100,000 .. 200,0000%00:00 (00:00)
100 Cosmochoria Apr 27, 2015 $9.99N/A (N/A)20,000 .. 50,0000%00:00 (00:00)
101 Filthy Lucre Dec 11, 2016 $12.99N/A (N/A)0 .. 20,0000%00:00 (00:00)
102 Full Bore May 6, 2014 $14.99N/A (N/A/72%)20,000 .. 50,0000%00:00 (00:00)
103 Scanner Sombre Apr 26, 2017 $5.99N/A (N/A/67%)100,000 .. 200,0000%00:00 (00:00)
104 Dream Jul 31, 2015 $8.99N/A (N/A/59%)50,000 .. 100,0000%00:00 (00:00)
105 Doodle Kingdom Jun 9, 2016 $8.99N/A (N/A)50,000 .. 100,0000%00:00 (00:00)
106 Void Invaders Aug 14, 2015 $2.99N/A (N/A)20,000 .. 50,0000%00:00 (00:00)
107 Season of 12 Colors Mar 14, 2016 $2.99N/A (N/A)50,000 .. 100,0000%00:00 (00:00)
108 Porcunipine May 21, 2015 $9.99N/A (N/A)20,000 .. 50,0000%00:00 (00:00)
109 Pix the Cat Jan 29, 2015 $9.99N/A (N/A/77%)50,000 .. 100,0000%00:00 (00:00)
110 Boson X Sep 15, 2014 $2.99N/A (N/A)200,000 .. 500,0000%00:00 (00:00)
111 Distant Space Dec 20, 2016 $0.49N/A (N/A)100,000 .. 200,0000%00:00 (00:00)
112 Kromaia Oct 23, 2014 $19.99N/A (N/A/68%)20,000 .. 50,0000%00:00 (00:00)
113 Too Angry to Space Aug 8, 2016 $4.99N/A (N/A)0 .. 20,0000%00:00 (00:00)
114 Knytt Underground Oct 25, 2013 $6.99N/A (N/A)50,000 .. 100,0000%00:00 (00:00)
115 Domino Sky Apr 5, 2016 $3.99N/A (N/A)50,000 .. 100,0000%00:00 (00:00)
116 Unmechanical Aug 8, 2012 $9.99N/A (N/A/74%)100,000 .. 200,0000%00:00 (00:00)
117 The Purring Quest Nov 12, 2015 $9.99N/A (N/A)100,000 .. 200,0000%00:00 (00:00)
118 Aviary Attorney Dec 21, 2015 $14.99N/A (N/A/77%)50,000 .. 100,0000%00:00 (00:00)
119 Kiai Resonance Apr 23, 2015 $4.99N/A (N/A)20,000 .. 50,0000%00:00 (00:00)
120 Tomb of Tyrants Jun 25, 2015 $7.99N/A (N/A)20,000 .. 50,0000%00:00 (00:00)
121 Velocibox Sep 8, 2014 $4.99N/A (N/A)50,000 .. 100,0000%00:00 (00:00)
122 Road Not Taken Aug 5, 2014 $14.99N/A (N/A/75%)50,000 .. 100,0000%00:00 (00:00)
123 Academagia: The Making of Mages Apr 20, 2017 $15.99N/A (N/A)20,000 .. 50,0000%00:00 (00:00)
124 Montas Mar 24, 2014 $9.99N/A (N/A)0 .. 20,0000%00:00 (00:00)
125 ORCS May 20, 2016 $1.99N/A (N/A)20,000 .. 50,0000%00:00 (00:00)
126 Bad Hotel Oct 16, 2013 $4.99N/A (N/A)50,000 .. 100,0000%00:00 (00:00)
127 Rencounter Nov 4, 2016 $5.99N/A (N/A)50,000 .. 100,0000%00:00 (00:00)
128 Critter Crunch Sep 11, 2012 $6.99N/A (N/A)20,000 .. 50,0000%00:00 (00:00)
129 Blaster Shooter GunGuy! Aug 10, 2015 $1.99N/A (N/A)50,000 .. 100,0000%00:00 (00:00)
130 Cosmophony Jul 9, 2015 $4.99N/A (N/A)0 .. 20,0000%00:00 (00:00)
131 An Octave Higher Mar 27, 2015 $11.99N/A (N/A)0 .. 20,0000%00:00 (00:00)
132 Tulpa Jan 29, 2015 $2.99N/A (N/A)50,000 .. 100,0000%00:00 (00:00)
133 TRISTOY Jan 15, 2015 $6.99N/A (N/A/49%)0 .. 20,0000%00:00 (00:00)
134 Child Phobia: Nightcoming Fears Dec 20, 2016 $1.99N/A (N/A)50,000 .. 100,0000%00:00 (00:00)
135 ReignMaker Apr 16, 2014 $14.99N/A (N/A)50,000 .. 100,0000%00:00 (00:00)
136 Dinosaur Forest May 17, 2017 $1.99N/A (N/A)50,000 .. 100,0000%00:00 (00:00)
137 Solar Flux Oct 24, 2013 $9.99N/A (N/A)100,000 .. 200,0000%00:00 (00:00)
138 Emerge: Cities of the Apocalypse Apr 27, 2016 $7.99N/A (N/A)50,000 .. 100,0000%00:00 (00:00)
139 Sugar Cube: Bittersweet Factory Nov 7, 2012 $6.99N/A (N/A)20,000 .. 50,0000%00:00 (00:00)
140 Morphine Oct 28, 2015 $2.99N/A (N/A)20,000 .. 50,0000%00:00 (00:00)
141 none Nov 4, 2015 N/AN/A (N/A)20,000 .. 50,0000%00:00 (00:00)
142 Spellsworn Mar 13, 2018 FreeN/A (N/A)200,000 .. 500,0000%00:00 (00:00)
143 On A Roll 3D Feb 12, 2015 $3.99N/A (N/A)50,000 .. 100,00014.29%00:20 (00:06)
144 Squishy the Suicidal Pig Oct 23, 2014 $5.99N/A (N/A)200,000 .. 500,0000%00:00 (00:00)
145 Pivvot Jul 14, 2014 $4.99N/A (N/A)0 .. 20,0000%00:00 (00:00)
146 BoomTown! Deluxe Oct 14, 2016 $1.99N/A (N/A)20,000 .. 50,0000%00:00 (00:00)
147 Jones On Fire Mar 27, 2015 $2.99N/A (N/A)50,000 .. 100,0000%00:00 (00:00)
148 Star Drifter Jun 1, 2016 $0.99N/A (N/A)50,000 .. 100,0000%00:00 (00:00)
149 Godus N/AN/A (N/A)50,000 .. 100,0000%00:00 (00:00)
150 Evertown Jan 11, 2016 $1.99N/A (N/A)0 .. 20,0000%00:00 (00:00)
151 BIT.TRIP BEAT Nov 2, 2010 $9.99N/A (N/A)200,000 .. 500,0000%00:00 (00:00)
152 Wild Island Quest Sep 4, 2015 $1.99N/A (N/A)50,000 .. 100,0000%00:00 (00:00)
153 Football, Tactics & Glory Jun 1, 2018 $24.99N/A (N/A)200,000 .. 500,0000%00:00 (00:00)
154 NEO AQUARIUM - The King of Crustaceans - Jun 8, 2015 $8.99N/A (N/A)50,000 .. 100,0000%00:00 (00:00)
155 Phoenix Force Nov 13, 2014 $0.99N/A (N/A)20,000 .. 50,0000%00:00 (00:00)
156 Echo of the Wilds Jun 10, 2014 $6.99N/A (N/A)0 .. 20,0000%00:00 (00:00)
157 Mistwood Heroes Dec 30, 2016 $0.99N/A (N/A)20,000 .. 50,0000%00:00 (00:00)
158 Autocraft Sep 20, 2017 $9.99N/A (N/A)20,000 .. 50,0000%00:00 (00:00)
159 Joana's Life Sep 1, 2016 $5.99N/A (N/A)50,000 .. 100,0000%00:00 (00:00)
160 FOTONICA Nov 6, 2014 $14.99N/A (N/A/71%)50,000 .. 100,0000%00:00 (00:00)
161 Wrath of Anna Apr 2, 2018 $19.99N/A (N/A)50,000 .. 100,0000%00:00 (00:00)
162 Party of Sin Dec 13, 2012 $5.99N/A (N/A)50,000 .. 100,0000%00:00 (00:00)
163 Days Under Custody Nov 23, 2015 $4.99N/A (N/A)20,000 .. 50,0000%00:00 (00:00)
164 Stray Cat Crossing Aug 28, 2015 $2.99N/A (N/A)20,000 .. 50,0000%00:00 (00:00)
165 Luna Sky Oct 2, 2015 $12.99N/A (N/A)50,000 .. 100,0000%00:00 (00:00)
166 Glorkian Warrior: The Trials Of Glork Mar 24, 2015 $3.99N/A (N/A)20,000 .. 50,0000%00:00 (00:00)
167 Great Permutator Sep 15, 2014 $6.99N/A (N/A)20,000 .. 50,0000%00:00 (00:00)
168 The Promised Land Apr 25, 2014 $6.99N/A (N/A)20,000 .. 50,0000%00:00 (00:00)
169 Son of a Witch May 16, 2018 $14.99N/A (N/A)20,000 .. 50,0000%00:00 (00:00)
170 10 Second Ninja Mar 5, 2014 $1.99N/A (N/A/72%)50,000 .. 100,0000%00:00 (00:00)
171 Call Of The Mighty Warriors Jun 2, 2016 $0.99N/A (N/A)50,000 .. 100,0000%00:00 (00:00)
172 Zack Zero Apr 29, 2013 $2.99N/A (N/A)50,000 .. 100,0000%00:00 (00:00)
173 10 Second Ninja X Jul 19, 2016 $9.99N/A (N/A)200,000 .. 500,0000.6%00:02 (00:00)
174 Super Splatters Jun 26, 2013 N/AN/A (N/A/73%)50,000 .. 100,0000%00:00 (00:00)
175 Kitchen Simulator 2015 Sep 4, 2015 $0.99N/A (N/A)50,000 .. 100,0000%00:00 (00:00)
176 Monument Jun 5, 2015 $1.99N/A (N/A)0 .. 20,0000%00:00 (00:00)
177 Home is Where One Starts... May 12, 2015 $2.99N/A (N/A)20,000 .. 50,0000%00:00 (00:00)
178 A Druid's Duel Feb 25, 2015 $7.99N/A (N/A/70%)0 .. 20,0000%00:00 (00:00)
179 Iron Fisticle Sep 16, 2014 $8.99N/A (N/A)20,000 .. 50,0000%00:00 (00:00)
180 Project LUX Feb 2, 2018 $24.99N/A (N/A)0 .. 20,0000%00:00 (00:00)
181 Actual Sunlight Apr 3, 2014 $4.99N/A (N/A/77%)50,000 .. 100,0000%00:00 (00:00)
182 Intensive Exposure Sep 6, 2016 $4.99N/A (N/A)0 .. 20,0000%00:00 (00:00)
183 Escape Goat 2 Mar 24, 2014 $9.99N/A (N/A/76%)50,000 .. 100,0000%00:00 (00:00)
184 Snooker Nation Championship Apr 27, 2016 $3.99N/A (N/A)20,000 .. 50,0000%00:00 (00:00)
185 Home Aug 31, 2012 $4.99N/A (N/A/69%)200,000 .. 500,0000%00:00 (00:00)
186 Godus Wars Feb 3, 2016 $14.99N/A (N/A)50,000 .. 100,0000%00:00 (00:00)
187 Super Trench Attack 2 Nov 6, 2015 $2.99N/A (N/A)20,000 .. 50,0000%00:00 (00:00)
188 Interstellar Rift Sep 24, 2020 $19.99N/A (N/A)50,000 .. 100,0000%00:00 (00:00)
189 It came from space and ate our brains Mar 19, 2015 $14.99N/A (N/A)200,000 .. 500,0000%00:00 (00:00)
190 Ninja Pizza Girl Sep 30, 2015 $6.99N/A (N/A/82%)50,000 .. 100,0000%00:00 (00:00)
191 TownCraft Feb 25, 2015 $9.99N/A (N/A)0 .. 20,0000%00:00 (00:00)
192 Pixel Gladiator Sep 8, 2017 $4.99N/A (N/A)20,000 .. 50,0000%00:00 (00:00)
193 Labyrinthine Dreams May 26, 2015 $1.99N/A (N/A)20,000 .. 50,0000%00:00 (00:00)
194 Karma Miwa Aug 12, 2016 $0.99N/A (N/A)20,000 .. 50,0000%00:00 (00:00)

Tags over time:

Access restricted.

This feature is only available to users with special access rights. Sorry.

If you want to proceed, you need to register or log in first and then back Steam Spy on Patreon. Look for Indie or Pro pledge.

Don't forget to use the same email as on Steam Spy!

If you've recently backed Steam Spy on Patreon, please note, that it might take around 15 minutes for your access rights to sync. In most cases you'll need to re-login on Steam Spy too.

Owners of this game also own:

Access restricted.

This feature is only available to users with special access rights. Sorry.

If you want to proceed, you need to register or log in first and then back Steam Spy on Patreon. Look for Indie or Pro pledge.

Don't forget to use the same email as on Steam Spy!

If you've recently backed Steam Spy on Patreon, please note, that it might take around 15 minutes for your access rights to sync. In most cases you'll need to re-login on Steam Spy too.

Playtime distribution:

Access restricted.

This feature is only available to users with special access rights. Sorry.

If you want to proceed, you need to register or log in first and then back Steam Spy on Patreon. Look for Indie or Pro pledge.

Don't forget to use the same email as on Steam Spy!

If you've recently backed Steam Spy on Patreon, please note, that it might take around 15 minutes for your access rights to sync. In most cases you'll need to re-login on Steam Spy too.

Playtime (2 weeks):

Access restricted.

This feature is only available to users with special access rights. Sorry.

If you want to proceed, you need to register or log in first and then back Steam Spy on Patreon. Look for Indie or Pro pledge.

Don't forget to use the same email as on Steam Spy!

If you've recently backed Steam Spy on Patreon, please note, that it might take around 15 minutes for your access rights to sync. In most cases you'll need to re-login on Steam Spy too.

User reviews:

Login required.

Please register or log in to see this information.